createdAt,value
2022-10-29T00:00:00.759Z,15.80
2022-10-29T00:02:03.286Z,15.80
2022-10-29T00:04:06.268Z,15.70
2022-10-29T00:06:10.622Z,15.80
2022-10-29T00:10:30.171Z,15.70
2022-10-29T00:12:32.623Z,15.80
2022-10-29T00:14:35.536Z,15.80
2022-10-29T00:16:39.444Z,15.70
2022-10-29T00:18:42.113Z,15.80
2022-10-29T00:20:44.607Z,15.80
2022-10-29T00:22:47.113Z,15.80
2022-10-29T00:24:49.574Z,15.80
2022-10-29T00:26:52.072Z,15.80
2022-10-29T00:28:55.540Z,15.80
2022-10-29T00:30:59.824Z,15.90
2022-10-29T00:33:02.336Z,15.80
2022-10-29T00:35:05.339Z,15.80
2022-10-29T00:37:07.811Z,15.80
2022-10-29T00:39:12.694Z,15.80
2022-10-29T00:41:16.204Z,15.90
2022-10-29T00:43:19.632Z,15.90
2022-10-29T00:45:22.124Z,15.80
2022-10-29T00:47:26.235Z,15.90
2022-10-29T00:49:29.027Z,15.80
2022-10-29T00:51:32.519Z,15.90
2022-10-29T00:53:36.868Z,15.90
2022-10-29T00:55:39.580Z,15.90
2022-10-29T00:57:43.979Z,15.90
2022-10-29T01:01:50.198Z,15.90
2022-10-29T01:03:53.695Z,16.00
2022-10-29T01:05:56.279Z,16.00
2022-10-29T01:07:58.749Z,15.90
2022-10-29T01:10:01.273Z,15.90
2022-10-29T01:12:14.793Z,15.90
2022-10-29T01:16:34.400Z,15.90
2022-10-29T01:18:38.585Z,15.90
2022-10-29T01:20:55.860Z,15.90
2022-10-29T01:23:01.707Z,15.90
2022-10-29T01:25:09.328Z,15.80
2022-10-29T01:27:31.756Z,15.80
2022-10-29T01:29:38.148Z,15.70
2022-10-29T01:31:42.432Z,15.70
2022-10-29T01:33:47.319Z,15.70
2022-10-29T01:35:51.606Z,15.70
2022-10-29T01:37:56.597Z,15.60
2022-10-29T01:40:00.941Z,15.60
2022-10-29T01:42:05.284Z,15.60
2022-10-29T01:44:09.865Z,15.60
2022-10-29T01:46:14.244Z,15.60
2022-10-29T01:50:32.410Z,15.60
2022-10-29T01:52:36.281Z,15.60
2022-10-29T01:54:40.289Z,15.60
2022-10-29T01:56:42.812Z,15.60
2022-10-29T01:58:47.110Z,15.60
2022-10-29T02:00:51.415Z,15.60
2022-10-29T02:03:01.324Z,15.70
2022-10-29T02:05:07.075Z,15.60
2022-10-29T02:07:11.666Z,15.60
2022-10-29T02:09:16.127Z,15.50
2022-10-29T02:11:20.458Z,15.60
2022-10-29T02:13:24.860Z,16.00
2022-10-29T02:15:29.180Z,15.60
2022-10-29T02:17:31.864Z,15.60
2022-10-29T02:19:35.743Z,15.60
2022-10-29T02:21:39.848Z,15.50
2022-10-29T02:23:42.319Z,15.50
2022-10-29T02:25:44.864Z,15.40
2022-10-29T02:27:47.377Z,15.40
2022-10-29T02:29:49.904Z,15.40
2022-10-29T02:31:52.419Z,15.40
2022-10-29T02:33:54.916Z,15.40
2022-10-29T02:35:57.380Z,15.40
2022-10-29T02:38:00.033Z,15.30
2022-10-29T02:40:02.518Z,15.40
2022-10-29T02:42:05.301Z,15.30
2022-10-29T02:44:07.808Z,15.30
2022-10-29T02:46:10.901Z,15.30
2022-10-29T02:48:13.407Z,15.20
2022-10-29T02:50:16.011Z,15.20
2022-10-29T02:52:18.501Z,15.20
2022-10-29T02:54:20.986Z,15.20
2022-10-29T02:56:23.731Z,15.20
2022-10-29T02:58:26.205Z,15.20
2022-10-29T03:00:28.816Z,15.00
2022-10-29T03:02:31.332Z,15.10
2022-10-29T03:04:33.868Z,15.00
2022-10-29T03:06:36.548Z,14.90
2022-10-29T03:08:39.141Z,14.90
2022-10-29T03:10:41.659Z,14.90
2022-10-29T03:12:44.244Z,14.90
2022-10-29T03:14:46.703Z,14.90
2022-10-29T03:16:49.167Z,14.90
2022-10-29T03:18:51.736Z,14.80
2022-10-29T03:20:54.226Z,14.80
2022-10-29T03:22:56.707Z,14.80
2022-10-29T03:24:59.220Z,14.80
2022-10-29T03:27:01.704Z,14.90
2022-10-29T03:29:04.258Z,14.80
2022-10-29T03:31:06.764Z,14.80
2022-10-29T03:33:09.247Z,14.80
2022-10-29T03:35:12.352Z,14.70
2022-10-29T03:37:14.847Z,14.70
2022-10-29T03:39:17.347Z,14.70
2022-10-29T03:41:19.857Z,14.70
2022-10-29T03:43:22.523Z,14.70
2022-10-29T03:45:25.391Z,14.60
2022-10-29T03:49:45.300Z,14.60
2022-10-29T03:51:47.755Z,14.70
2022-10-29T03:53:50.632Z,14.70
2022-10-29T03:55:53.598Z,14.70
2022-10-29T03:57:56.437Z,14.70
2022-10-29T04:00:00.074Z,14.70
2022-10-29T04:02:02.722Z,14.70
2022-10-29T04:04:05.543Z,14.60
2022-10-29T04:06:10.116Z,14.70
2022-10-29T04:08:12.632Z,14.70
2022-10-29T04:10:15.232Z,14.60
2022-10-29T04:12:17.705Z,14.70
2022-10-29T04:14:20.456Z,14.70
2022-10-29T04:16:23.049Z,14.70
2022-10-29T04:18:25.555Z,14.60
2022-10-29T04:21:05.801Z,14.60
2022-10-29T04:25:40.303Z,14.60
2022-10-29T04:28:48.931Z,14.70
2022-10-29T04:30:51.409Z,14.60
2022-10-29T04:32:56.780Z,14.60
2022-10-29T04:34:59.604Z,14.60
2022-10-29T04:37:02.080Z,14.60
2022-10-29T04:39:04.831Z,14.50
2022-10-29T04:41:07.284Z,14.50
2022-10-29T04:43:09.747Z,14.50
2022-10-29T04:45:12.381Z,14.50
2022-10-29T04:47:14.848Z,14.50
2022-10-29T04:49:17.496Z,14.60
2022-10-29T04:51:20.704Z,14.50
2022-10-29T04:53:23.192Z,14.50
2022-10-29T04:55:25.670Z,14.40
2022-10-29T04:57:28.147Z,14.40
2022-10-29T04:59:30.628Z,14.40
2022-10-29T05:01:33.261Z,14.40
2022-10-29T05:03:35.828Z,14.40
2022-10-29T05:05:38.941Z,14.40
2022-10-29T05:07:41.443Z,14.40
2022-10-29T05:09:43.948Z,14.40
2022-10-29T05:11:46.468Z,14.30
2022-10-29T05:13:48.920Z,14.30
2022-10-29T05:15:53.346Z,14.30
2022-10-29T05:17:56.863Z,14.30
2022-10-29T05:19:59.535Z,14.20
2022-10-29T05:22:02.032Z,14.20
2022-10-29T05:24:04.703Z,14.10
2022-10-29T05:26:07.209Z,14.10
2022-10-29T05:28:11.765Z,14.10
2022-10-29T05:30:14.293Z,14.10
2022-10-29T05:32:16.890Z,14.10
2022-10-29T05:34:19.920Z,14.10
2022-10-29T05:36:22.415Z,14.20
2022-10-29T05:38:25.015Z,14.10
2022-10-29T05:40:27.926Z,14.10
2022-10-29T05:42:30.405Z,14.10
2022-10-29T05:44:32.875Z,14.20
2022-10-29T05:48:52.743Z,14.10
2022-10-29T05:50:56.713Z,14.10
2022-10-29T05:53:00.290Z,14.10
2022-10-29T05:55:02.923Z,14.10
2022-10-29T05:57:05.433Z,14.10
2022-10-29T05:59:07.903Z,14.10
2022-10-29T06:01:10.533Z,14.10
2022-10-29T06:03:14.043Z,14.10
2022-10-29T06:05:16.709Z,14.10
2022-10-29T06:07:19.311Z,14.10
2022-10-29T06:09:21.785Z,14.10
2022-10-29T06:11:24.279Z,14.10
2022-10-29T06:13:26.871Z,14.10
2022-10-29T06:15:29.344Z,14.10
2022-10-29T06:17:32.123Z,14.10
2022-10-29T06:19:34.721Z,14.10
2022-10-29T06:21:37.258Z,14.10
2022-10-29T06:23:39.757Z,14.10
2022-10-29T06:25:42.305Z,14.00
2022-10-29T06:27:44.787Z,14.00
2022-10-29T06:29:47.271Z,14.10
2022-10-29T06:31:49.843Z,14.10
2022-10-29T06:33:52.313Z,14.10
2022-10-29T06:35:56.635Z,14.20
2022-10-29T06:37:59.784Z,14.20
2022-10-29T06:40:02.876Z,14.20
2022-10-29T06:42:05.373Z,14.20
2022-10-29T06:46:23.221Z,14.30
2022-10-29T06:48:26.108Z,14.30
2022-10-29T06:50:28.802Z,14.30
2022-10-29T06:52:31.319Z,14.10
2022-10-29T06:54:33.783Z,14.20
2022-10-29T06:56:36.241Z,14.20
2022-10-29T06:58:38.763Z,14.20
2022-10-29T07:00:41.785Z,14.30
2022-10-29T07:02:44.378Z,14.30
2022-10-29T07:04:46.952Z,14.30
2022-10-29T07:06:49.476Z,14.30
2022-10-29T07:08:51.938Z,14.30
2022-10-29T07:10:54.624Z,14.30
2022-10-29T07:12:57.313Z,14.40
2022-10-29T07:14:59.834Z,14.40
2022-10-29T07:17:02.316Z,14.40
2022-10-29T07:19:05.230Z,14.50
2022-10-29T07:21:09.549Z,14.50
2022-10-29T07:23:12.717Z,14.50
2022-10-29T07:25:15.332Z,14.60
2022-10-29T07:27:17.899Z,14.60
2022-10-29T07:29:20.440Z,14.70
2022-10-29T07:31:23.030Z,14.70
2022-10-29T07:33:25.504Z,14.70
2022-10-29T07:35:27.988Z,14.80
2022-10-29T07:37:30.459Z,14.80
2022-10-29T07:39:32.959Z,14.80
2022-10-29T07:41:35.504Z,14.90
2022-10-29T07:43:37.963Z,14.90
2022-10-29T07:45:40.641Z,14.90
2022-10-29T07:49:59.424Z,14.90
2022-10-29T07:52:02.058Z,15.00
2022-10-29T07:54:04.872Z,15.00
2022-10-29T07:56:07.883Z,15.10
2022-10-29T07:58:11.319Z,15.10
2022-10-29T08:00:14.651Z,15.10
2022-10-29T08:02:17.431Z,15.20
2022-10-29T08:04:20.012Z,15.20
2022-10-29T08:06:22.536Z,15.10
2022-10-29T08:08:25.263Z,15.20
2022-10-29T08:10:28.209Z,15.30
2022-10-29T08:12:30.727Z,15.30
2022-10-29T08:14:33.184Z,15.30
2022-10-29T08:16:35.717Z,15.40
2022-10-29T08:18:38.189Z,15.50
2022-10-29T08:20:40.702Z,15.60
2022-10-29T08:22:43.560Z,15.60
2022-10-29T08:24:48.086Z,15.70
2022-10-29T08:26:51.553Z,15.80
2022-10-29T08:28:54.271Z,15.90
2022-10-29T08:30:56.754Z,16.00
2022-10-29T08:32:59.799Z,16.00
2022-10-29T08:35:03.239Z,16.00
2022-10-29T08:37:06.408Z,16.00
2022-10-29T08:39:09.999Z,16.10
2022-10-29T08:41:16.929Z,16.10
2022-10-29T08:43:50.522Z,16.00
2022-10-29T08:45:54.579Z,16.10
2022-10-29T08:48:02.436Z,16.20
2022-10-29T08:50:07.076Z,16.20
2022-10-29T08:52:11.479Z,16.20
2022-10-29T08:54:31.790Z,16.30
2022-10-29T08:56:21.340Z,16.40
2022-10-29T08:58:25.701Z,16.50
2022-10-29T09:00:30.011Z,16.50
2022-10-29T09:02:32.800Z,16.60
2022-10-29T09:04:36.087Z,16.60
2022-10-29T09:06:40.367Z,16.80
2022-10-29T09:08:46.656Z,16.90
2022-10-29T09:10:51.471Z,17.00
2022-10-29T09:13:04.202Z,17.10
2022-10-29T09:15:20.631Z,17.30
2022-10-29T09:17:25.528Z,17.40
2022-10-29T09:19:47.123Z,17.50
2022-10-29T09:21:52.792Z,17.70
2022-10-29T09:23:59.087Z,17.90
2022-10-29T09:26:03.101Z,18.00
2022-10-29T09:28:09.005Z,18.10
2022-10-29T09:30:14.120Z,18.30
2022-10-29T09:32:18.437Z,18.50
2022-10-29T09:34:24.208Z,18.70
2022-10-29T09:36:26.718Z,18.90
2022-10-29T09:38:31.715Z,19.20
2022-10-29T09:40:35.670Z,19.30
2022-10-29T09:42:39.429Z,19.40
2022-10-29T09:44:43.879Z,19.50
2022-10-29T09:46:48.512Z,19.70
2022-10-29T09:48:53.953Z,19.70
2022-10-29T09:51:00.015Z,19.60
2022-10-29T09:53:02.494Z,19.50
2022-10-29T09:55:06.276Z,19.50
2022-10-29T09:57:11.897Z,19.50
2022-10-29T09:59:18.013Z,19.50
2022-10-29T10:01:20.856Z,19.70
2022-10-29T10:03:25.184Z,19.90
2022-10-29T10:05:29.127Z,20.10
2022-10-29T10:07:31.655Z,20.30
2022-10-29T10:09:51.962Z,20.40
2022-10-29T10:11:56.461Z,20.60
2022-10-29T10:13:59.986Z,20.70
2022-10-29T10:16:03.399Z,20.90
2022-10-29T10:18:06.757Z,20.90
2022-10-29T10:20:17.383Z,20.90
2022-10-29T10:22:20.436Z,20.80
2022-10-29T10:24:29.895Z,20.80
2022-10-29T10:26:38.457Z,20.90
2022-10-29T10:28:40.944Z,20.90
2022-10-29T10:30:43.546Z,20.90
2022-10-29T10:32:46.038Z,20.90
2022-10-29T10:34:49.226Z,20.80
2022-10-29T10:36:52.208Z,20.80
2022-10-29T10:38:55.775Z,20.80
2022-10-29T10:41:00.394Z,21.00
2022-10-29T10:43:06.834Z,21.00
2022-10-29T10:45:13.871Z,20.90
2022-10-29T10:47:17.439Z,20.80
2022-10-29T10:49:22.729Z,20.70
2022-10-29T10:51:27.045Z,20.80
2022-10-29T10:53:29.563Z,20.80
2022-10-29T10:55:32.574Z,20.90
2022-10-29T10:57:36.847Z,21.00
2022-10-29T10:59:44.018Z,21.10
2022-10-29T11:01:48.408Z,21.20
2022-10-29T11:03:52.960Z,21.30
2022-10-29T11:05:57.222Z,21.30
2022-10-29T11:08:01.301Z,21.40
2022-10-29T11:10:05.307Z,21.50
2022-10-29T11:12:10.657Z,21.60
2022-10-29T11:14:15.182Z,21.70
2022-10-29T11:16:19.462Z,21.80
2022-10-29T11:18:24.581Z,21.90
2022-10-29T11:20:28.771Z,22.00
2022-10-29T11:24:49.675Z,22.30
2022-10-29T11:26:54.095Z,22.50
2022-10-29T11:28:59.503Z,22.60
2022-10-29T11:31:05.000Z,22.80
2022-10-29T11:33:13.158Z,22.90
2022-10-29T11:35:17.522Z,22.70
2022-10-29T11:37:22.854Z,22.80
2022-10-29T11:39:28.315Z,22.80
2022-10-29T11:41:33.016Z,22.80
2022-10-29T11:43:35.675Z,23.10
2022-10-29T11:45:40.792Z,23.20
2022-10-29T11:47:47.225Z,23.10
2022-10-29T11:49:54.432Z,22.90
2022-10-29T11:51:59.522Z,22.90
2022-10-29T11:54:03.854Z,23.10
2022-10-29T11:56:08.183Z,23.30
2022-10-29T11:58:12.615Z,23.40
2022-10-29T12:00:16.586Z,23.50
2022-10-29T12:02:25.103Z,23.50
2022-10-29T12:04:29.576Z,23.60
2022-10-29T12:06:34.627Z,23.70
2022-10-29T12:08:44.800Z,23.70
2022-10-29T12:10:50.096Z,23.70
2022-10-29T12:12:54.388Z,23.80
2022-10-29T12:14:58.818Z,23.80
2022-10-29T12:17:03.668Z,23.80
2022-10-29T12:21:24.693Z,23.70
2022-10-29T12:23:30.131Z,23.70
2022-10-29T12:25:37.384Z,23.70
2022-10-29T12:27:41.695Z,23.60
2022-10-29T12:29:47.207Z,23.60
2022-10-29T12:31:51.935Z,23.60
2022-10-29T12:33:57.734Z,23.60
2022-10-29T12:38:09.316Z,23.70
2022-10-29T12:40:15.655Z,23.70
2022-10-29T12:42:21.941Z,23.50
2022-10-29T12:44:28.206Z,23.60
2022-10-29T12:46:36.569Z,23.60
2022-10-29T12:48:41.532Z,23.70
2022-10-29T12:50:46.605Z,23.60
2022-10-29T12:52:51.168Z,23.50
2022-10-29T12:54:54.155Z,23.50
2022-10-29T12:56:58.428Z,23.40
2022-10-29T12:59:05.336Z,23.40
2022-10-29T13:01:09.896Z,23.40
2022-10-29T13:03:12.386Z,23.40
2022-10-29T13:05:16.396Z,23.30
2022-10-29T13:07:24.802Z,23.30
2022-10-29T13:09:27.990Z,23.30
2022-10-29T13:11:35.176Z,23.20
2022-10-29T13:13:44.907Z,23.20
2022-10-29T13:15:48.003Z,23.10
2022-10-29T13:17:51.772Z,23.10
2022-10-29T13:19:55.723Z,23.00
2022-10-29T13:21:58.867Z,23.10
2022-10-29T13:24:05.104Z,23.00
2022-10-29T13:26:07.687Z,23.00
2022-10-29T13:28:32.077Z,23.00
2022-10-29T13:30:34.900Z,23.00
2022-10-29T13:32:37.990Z,23.10
2022-10-29T13:34:49.739Z,23.20
2022-10-29T13:36:52.253Z,23.20
2022-10-29T13:39:06.142Z,23.20
2022-10-29T13:41:12.120Z,23.20
2022-10-29T13:43:17.112Z,23.30
2022-10-29T13:45:19.932Z,23.20
2022-10-29T13:47:22.437Z,23.20
2022-10-29T13:49:27.210Z,23.20
2022-10-29T13:53:49.091Z,23.20
2022-10-29T13:55:51.769Z,23.10
2022-10-29T13:57:56.693Z,23.20
2022-10-29T14:00:01.289Z,23.20
2022-10-29T14:02:07.773Z,23.20
2022-10-29T14:04:13.780Z,23.20
2022-10-29T14:06:17.016Z,23.20
2022-10-29T14:08:20.320Z,23.20
2022-10-29T14:10:23.600Z,23.20
2022-10-29T14:12:28.554Z,23.20
2022-10-29T14:14:33.156Z,23.20
2022-10-29T14:16:35.733Z,23.20
2022-10-29T14:18:40.679Z,23.20
2022-10-29T14:20:46.012Z,23.10
2022-10-29T14:22:49.305Z,23.10
2022-10-29T14:24:52.489Z,23.00
2022-10-29T14:27:02.196Z,22.90
2022-10-29T14:29:14.500Z,22.90
2022-10-29T14:31:18.476Z,22.80
2022-10-29T14:33:24.707Z,22.70
2022-10-29T14:35:29.259Z,22.70
2022-10-29T14:37:33.050Z,22.60
2022-10-29T14:39:48.483Z,22.60
2022-10-29T14:41:41.080Z,22.60
2022-10-29T14:43:44.339Z,22.50
2022-10-29T14:45:46.816Z,22.50
2022-10-29T14:47:50.296Z,22.50
2022-10-29T14:49:53.862Z,22.40
2022-10-29T14:51:57.588Z,22.50
2022-10-29T14:54:01.713Z,22.50
2022-10-29T14:56:06.915Z,22.40
2022-10-29T14:58:14.465Z,22.40
2022-10-29T15:00:23.202Z,22.30
2022-10-29T15:02:43.094Z,22.30
2022-10-29T15:04:31.952Z,22.30
2022-10-29T15:06:35.368Z,22.20
2022-10-29T15:08:39.607Z,22.20
2022-10-29T15:10:46.676Z,22.20
2022-10-29T15:12:49.360Z,22.10
2022-10-29T15:14:53.131Z,22.00
2022-10-29T15:16:55.607Z,22.00
2022-10-29T15:18:58.879Z,22.00
2022-10-29T15:21:01.759Z,21.90
2022-10-29T15:23:04.708Z,21.90
2022-10-29T15:25:08.417Z,21.90
2022-10-29T15:27:12.556Z,21.80
2022-10-29T15:29:18.906Z,21.80
2022-10-29T15:31:21.996Z,21.80
2022-10-29T15:33:26.761Z,21.70
2022-10-29T15:35:29.334Z,21.70
2022-10-29T15:37:41.791Z,21.60
2022-10-29T15:40:00.529Z,21.50
2022-10-29T15:42:03.180Z,21.50
2022-10-29T15:44:10.694Z,21.50
2022-10-29T15:46:15.456Z,21.30
2022-10-29T15:48:28.728Z,21.10
2022-10-29T15:50:33.195Z,21.00
2022-10-29T15:54:52.295Z,20.90
2022-10-29T15:56:54.989Z,20.90
2022-10-29T15:58:58.936Z,20.80
2022-10-29T16:01:01.693Z,20.70
2022-10-29T16:03:11.034Z,20.70
2022-10-29T16:05:14.165Z,20.60
2022-10-29T16:07:16.700Z,20.60
2022-10-29T16:09:21.351Z,20.60
2022-10-29T16:11:24.214Z,20.60
2022-10-29T16:13:27.598Z,20.60
2022-10-29T16:15:30.177Z,20.50
2022-10-29T16:17:32.813Z,20.40
2022-10-29T16:19:35.309Z,20.30
2022-10-29T16:21:37.907Z,20.20
2022-10-29T16:23:40.630Z,20.20
2022-10-29T16:25:43.149Z,20.10
2022-10-29T16:27:45.640Z,20.10
2022-10-29T16:29:49.024Z,20.10
2022-10-29T16:31:51.647Z,20.00
2022-10-29T16:33:55.956Z,19.90
2022-10-29T16:35:58.481Z,19.80
2022-10-29T16:38:00.932Z,19.60
2022-10-29T16:40:03.579Z,19.60
2022-10-29T16:42:06.101Z,19.40
2022-10-29T16:44:08.613Z,19.40
2022-10-29T16:46:11.659Z,19.40
2022-10-29T16:48:14.122Z,19.40
2022-10-29T16:50:17.075Z,19.30
2022-10-29T16:52:22.486Z,19.30
2022-10-29T16:54:24.007Z,19.40
2022-10-29T16:56:26.498Z,19.40
2022-10-29T16:58:28.998Z,19.40
2022-10-29T17:00:32.464Z,19.40
2022-10-29T17:02:34.983Z,19.40
2022-10-29T17:04:37.505Z,19.50
2022-10-29T17:06:40.092Z,19.50
2022-10-29T17:08:42.590Z,19.50
2022-10-29T17:10:45.063Z,19.50
2022-10-29T17:12:47.624Z,19.40
2022-10-29T17:14:50.087Z,19.30
2022-10-29T17:16:52.562Z,19.30
2022-10-29T17:18:55.892Z,19.20
2022-10-29T17:20:59.294Z,19.20
2022-10-29T17:23:01.767Z,19.10
2022-10-29T17:25:04.789Z,19.10
2022-10-29T17:29:21.640Z,19.10
2022-10-29T17:31:25.024Z,19.00
2022-10-29T17:33:27.532Z,19.00
2022-10-29T17:35:30.035Z,18.90
2022-10-29T17:37:32.736Z,19.00
2022-10-29T17:39:35.208Z,19.00
2022-10-29T17:41:37.696Z,19.00
2022-10-29T17:43:40.201Z,19.00
2022-10-29T17:45:43.728Z,18.90
2022-10-29T17:47:46.257Z,18.90
2022-10-29T17:52:05.859Z,18.80
2022-10-29T17:54:08.454Z,18.80
2022-10-29T17:56:13.122Z,18.80
2022-10-29T17:58:18.153Z,18.80
2022-10-29T18:00:21.048Z,18.80
2022-10-29T18:02:23.774Z,18.70
2022-10-29T18:04:30.271Z,18.60
2022-10-29T18:06:33.264Z,18.50
2022-10-29T18:08:49.210Z,18.40
2022-10-29T18:10:52.957Z,18.40
2022-10-29T18:12:55.424Z,18.20
2022-10-29T18:14:57.933Z,18.20
2022-10-29T18:17:00.831Z,18.10
2022-10-29T18:19:03.453Z,18.00
2022-10-29T18:21:07.012Z,17.90
2022-10-29T18:23:09.541Z,17.90
2022-10-29T18:25:12.020Z,18.00
2022-10-29T18:27:15.760Z,18.00
2022-10-29T18:29:19.072Z,18.10
2022-10-29T18:31:23.751Z,18.20
2022-10-29T18:33:27.665Z,18.30
2022-10-29T18:35:31.374Z,18.40
2022-10-29T18:37:35.061Z,18.50
2022-10-29T18:39:39.935Z,18.50
2022-10-29T18:41:43.868Z,18.40
2022-10-29T18:43:48.051Z,18.40
2022-10-29T18:45:58.131Z,18.30
2022-10-29T18:48:01.247Z,18.20
2022-10-29T18:50:05.473Z,18.10
2022-10-29T18:52:09.171Z,17.90
2022-10-29T18:54:12.655Z,17.90
2022-10-29T18:56:16.396Z,17.80
2022-10-29T18:58:18.909Z,17.90
2022-10-29T19:00:21.424Z,17.90
2022-10-29T19:02:24.146Z,17.90
2022-10-29T19:04:26.970Z,17.80
2022-10-29T19:06:30.735Z,17.70
2022-10-29T19:08:34.713Z,17.60
2022-10-29T19:10:37.451Z,17.50
2022-10-29T19:12:55.104Z,17.50
2022-10-29T19:15:04.655Z,17.40
2022-10-29T19:17:07.544Z,17.30
2022-10-29T19:19:11.298Z,17.10
2022-10-29T19:21:15.000Z,17.20
2022-10-29T19:23:17.721Z,17.20
2022-10-29T19:25:20.228Z,17.10
2022-10-29T19:27:23.548Z,17.00
2022-10-29T19:29:29.542Z,17.00
2022-10-29T19:31:33.434Z,16.90
2022-10-29T19:33:36.959Z,16.80
2022-10-29T19:35:39.581Z,16.80
2022-10-29T19:37:42.324Z,16.80
2022-10-29T19:39:45.421Z,16.80
2022-10-29T19:41:49.171Z,16.80
2022-10-29T19:43:51.679Z,16.80
2022-10-29T19:45:54.186Z,16.80
2022-10-29T19:47:58.010Z,16.70
2022-10-29T19:50:00.836Z,16.70
2022-10-29T19:52:03.401Z,16.60
2022-10-29T19:54:07.492Z,16.60
2022-10-29T19:56:11.372Z,16.60
2022-10-29T19:58:14.058Z,16.60
2022-10-29T20:00:21.007Z,16.60
2022-10-29T20:02:25.074Z,16.60
2022-10-29T20:04:27.638Z,16.60
2022-10-29T20:06:30.193Z,16.60
2022-10-29T20:08:32.855Z,16.70
2022-10-29T20:10:35.429Z,16.60
2022-10-29T20:12:54.417Z,16.70
2022-10-29T20:14:57.193Z,16.70
2022-10-29T20:16:59.674Z,16.70
2022-10-29T20:19:03.958Z,16.60
2022-10-29T20:23:09.079Z,16.60
2022-10-29T20:25:11.665Z,16.50
2022-10-29T20:27:14.180Z,16.40
2022-10-29T20:29:16.689Z,16.30
2022-10-29T20:31:30.052Z,16.30
2022-10-29T20:33:30.837Z,16.30
2022-10-29T20:35:33.583Z,16.30
2022-10-29T20:37:36.058Z,16.40
2022-10-29T20:39:38.845Z,16.40
2022-10-29T20:43:57.553Z,16.40
2022-10-29T20:46:01.059Z,16.60
2022-10-29T20:48:03.754Z,16.80
2022-10-29T20:50:06.941Z,17.00
2022-10-29T20:52:09.436Z,17.10
2022-10-29T20:54:11.906Z,17.10
2022-10-29T20:56:16.378Z,17.10
2022-10-29T20:58:19.679Z,17.10
2022-10-29T21:00:22.639Z,17.10
2022-10-29T21:02:25.433Z,17.10
2022-10-29T21:04:28.059Z,17.10
2022-10-29T21:06:30.569Z,17.00
2022-10-29T21:08:33.080Z,17.00
2022-10-29T21:10:35.771Z,16.90
2022-10-29T21:12:38.220Z,16.90
2022-10-29T21:14:40.733Z,16.90
2022-10-29T21:16:43.436Z,16.80
2022-10-29T21:18:47.407Z,16.70
2022-10-29T21:20:49.935Z,16.70
2022-10-29T21:22:52.446Z,16.70
2022-10-29T21:24:54.926Z,16.60
2022-10-29T21:26:57.454Z,16.50
2022-10-29T21:29:00.890Z,16.50
2022-10-29T21:31:03.721Z,16.40
2022-10-29T21:33:06.177Z,16.30
2022-10-29T21:35:09.259Z,16.30
2022-10-29T21:37:11.771Z,16.30
2022-10-29T21:39:25.572Z,16.30
2022-10-29T21:41:28.268Z,16.30
2022-10-29T21:43:30.865Z,16.30
2022-10-29T21:45:33.475Z,16.20
2022-10-29T21:47:36.021Z,16.10
2022-10-29T21:49:38.492Z,16.20
2022-10-29T21:51:41.011Z,16.10
2022-10-29T21:53:43.623Z,16.10
2022-10-29T21:55:46.280Z,16.00
2022-10-29T21:57:48.732Z,16.10
2022-10-29T21:59:51.261Z,16.00
2022-10-29T22:01:53.849Z,16.00
2022-10-29T22:03:56.345Z,15.90
2022-10-29T22:06:02.061Z,15.80
2022-10-29T22:08:04.696Z,15.80
2022-10-29T22:10:08.190Z,15.80
2022-10-29T22:12:11.548Z,15.60
2022-10-29T22:14:16.220Z,15.60
2022-10-29T22:16:20.025Z,15.50
2022-10-29T22:18:24.453Z,15.40
2022-10-29T22:20:27.828Z,15.40
2022-10-29T22:22:30.960Z,15.40
2022-10-29T22:24:33.767Z,15.30
2022-10-29T22:26:36.567Z,15.20
2022-10-29T22:28:39.330Z,15.30
2022-10-29T22:30:41.752Z,15.20
2022-10-29T22:32:44.324Z,15.20
2022-10-29T22:34:46.788Z,15.20
2022-10-29T22:36:50.727Z,15.20
2022-10-29T22:38:53.686Z,15.10
2022-10-29T22:40:56.153Z,15.10
2022-10-29T22:42:58.914Z,15.00
2022-10-29T22:45:01.618Z,15.00
2022-10-29T22:47:05.415Z,15.10
2022-10-29T22:49:09.122Z,15.10
2022-10-29T22:51:13.844Z,15.00
2022-10-29T22:53:17.184Z,15.00
2022-10-29T22:55:20.573Z,15.00
2022-10-29T22:57:24.095Z,15.00
2022-10-29T22:59:27.534Z,15.00
2022-10-29T23:01:32.010Z,15.00
2022-10-29T23:03:35.044Z,15.00
2022-10-29T23:05:37.518Z,15.00
2022-10-29T23:07:40.023Z,14.90
2022-10-29T23:09:43.475Z,14.90
2022-10-29T23:14:03.094Z,14.90
2022-10-29T23:16:07.143Z,14.90
2022-10-29T23:18:11.260Z,14.80
2022-10-29T23:20:13.971Z,14.90
2022-10-29T23:22:16.844Z,14.90
2022-10-29T23:24:20.189Z,14.80
2022-10-29T23:26:43.502Z,14.80
2022-10-29T23:28:46.951Z,14.80
2022-10-29T23:30:52.907Z,14.70
2022-10-29T23:32:55.793Z,14.70
2022-10-29T23:34:58.452Z,14.60
2022-10-29T23:37:03.157Z,14.60
2022-10-29T23:39:05.261Z,14.50
2022-10-29T23:41:29.907Z,14.50
2022-10-29T23:43:36.145Z,14.40
2022-10-29T23:45:40.871Z,14.40
2022-10-29T23:47:43.516Z,14.40
2022-10-29T23:49:46.003Z,14.40
2022-10-29T23:51:48.473Z,14.40
2022-10-29T23:53:54.757Z,14.40
2022-10-29T23:55:55.290Z,14.30
2022-10-29T23:57:58.694Z,14.30
